Airfield :
LOGIN :

Register | Disclaimer

   EN    FR    IT 

 










Legend :    VFR   Marginal VFR   IFR   Intensive IFR   Very Intensive IFR
Visi :
Ceiling :
>= 8 km
>= 3000ft
5 to 8 km
1000 to 3000 ft
1500m to 5 km
500 to 1000 ft
800 to 1500m
200 to 500 ft
< 800m
< 200 ft
Symbols :   Thunderstorms  Fog  Heavy snow  Heavy precipitations  Wind > 20 kt
SIGMETs :     Misc.  Thunderstorms  Icing  Turbulence  Mountain Waves  Volcanic Ashes







- Airport Elevation : 13 ft
- IATA code : CEQ
- Download approach charts


LFMD - Cannes Mandelieu

CURRENT METAR :
  • 301630Z AUTO VRB03KT 9999 OVC090 15/10 Q1013 NOSIG

EXPIRED METARs :
  • 301600Z AUTO 16004KT 110V210 9999 OVC088 16/10 Q1013 NOSIG
  • 301530Z AUTO 14004KT 090V200 9999 OVC096 16/10 Q1013 NOSIG
  • 301500Z AUTO 17005KT 130V210 9999 OVC088 17/10 Q1013 NOSIG
  • 301430Z AUTO 19007KT 140V220 9999 OVC088 17/10 Q1014 NOSIG
  • 301400Z AUTO 18007KT 090V210 9999 BKN088 18/08 Q1014 NOSIG

TAF TAF LFMD
Valid from the 30 at 15:00 until the 01 at 15:00 UTC


301400Z 3015/0115 18007KT 9999 FEW040 BKN080
BECMG 3023/0101 10010KT SCT020 OVC060
BECMG 0101/0103 RA BKN015 OVC020
TEMPO 0103/0106 VRB15G25KT 4000 TSRA BKN015CB
BECMG 0106/0108 27015G25KT CAVOK
ATIS : +33 4 93 48 73 23
No reported NOTAMs for that airfield.
2 SIGMETs reported for the Marseille FIR (LFMM) :
 
Embedded thunderstorms
LFMM SIGMET 5 VALID 301700/301900 LFPW
LFMM MARSEILLE FIR/UIR EMBD TS OBS WI N4300 E00230 - N4545 E00300 - N4545 E00315 - N4300 E00245 TOP FL300 MOV E 20KT NC=
Severe turbulence
LFMM SIGMET 4 VALID 301600/302000 LFPW
LFMM MARSEILLE FIR/UIR SEV TURB FCST WI N4215 E00345 - N4215 E00230 - N4630 E00300 - N4630 E00515 - N4330 E00515 SFC/FL070 STNR NC=



MET'MAP, your aeronautical weather chart ! - Copyright ORBIFLY December 2007 - Disclaimer

ORBIFLY MET'MAP TEAM :

Programming & Development : Alexandra Zaïnal
Concept & Development : Baudouin d'Aumeries
Co-Development & Prog : Marc-Olivier Méhu
Technical & hardware support : Manuel Goepfert

Contact : metmap@orbifly.com




SOURCES & CREDITS :

   NOAA